Time;durP1;ratioP1;P1;durP2;ratioP2;P2;SDS_P1;SDS_P2;PMS_P1;PMS_P2;Temp;Humidity;BMP_temperature;BMP_pressure;BME280_temperature;BME280_humidity;BME280_pressure;Samples;Min_cycle;Max_cycle;Signal;HPM_P1;HPM_P2
2021/06/18 00:01:58;;;;;;;5.90;5.50;;;20.70;99.90;;;;;;5035100;28;20451;-63
2021/06/18 00:04:23;;;;;;;8.13;5.83;;;20.60;99.90;;;;;;5034994;28;20174;-63
2021/06/18 00:06:49;;;;;;;8.33;5.17;;;20.60;99.90;;;;;;5033399;28;20563;-63
2021/06/18 00:09:15;;;;;;;5.50;5.10;;;20.60;99.90;;;;;;5034377;28;20213;-63
2021/06/18 00:11:41;;;;;;;5.23;4.40;;;20.50;99.90;;;;;;5034822;28;20716;-63
2021/06/18 00:14:07;;;;;;;6.00;4.37;;;20.50;99.90;;;;;;5034926;28;20898;-63
2021/06/18 00:16:34;;;;;;;4.97;4.57;;;20.40;99.90;;;;;;5034990;28;20380;-63
2021/06/18 00:18:59;;;;;;;4.20;3.87;;;20.30;99.90;;;;;;5034170;28;20407;-63
2021/06/18 00:21:25;;;;;;;5.40;4.77;;;20.30;99.90;;;;;;5034355;28;20436;-63
2021/06/18 00:23:51;;;;;;;4.00;3.70;;;20.20;99.90;;;;;;5033490;28;20405;-63
2021/06/18 00:26:16;;;;;;;5.30;4.80;;;20.10;99.90;;;;;;5034442;28;20273;-63
2021/06/18 00:28:42;;;;;;;5.00;4.60;;;20.00;99.90;;;;;;5034045;28;20204;-63
2021/06/18 00:31:11;;;;;;;5.63;5.23;;;19.90;99.90;;;;;;5034290;28;20729;-63
2021/06/18 00:33:37;;;;;;;5.60;5.10;;;19.90;99.90;;;;;;5034762;28;20228;-63
2021/06/18 00:36:03;;;;;;;5.20;4.70;;;19.80;99.90;;;;;;5034033;28;20448;-63
2021/06/18 00:38:29;;;;;;;4.77;4.37;;;19.80;99.90;;;;;;5034033;28;20517;-63
2021/06/18 00:40:55;;;;;;;5.03;4.63;;;19.80;99.90;;;;;;5034612;28;20502;-63
2021/06/18 00:43:21;;;;;;;5.00;4.60;;;19.70;99.90;;;;;;5034195;28;20178;-63
2021/06/18 00:45:47;;;;;;;5.13;4.73;;;19.60;99.90;;;;;;5034256;28;20957;-63
2021/06/18 00:48:13;;;;;;;6.00;5.50;;;19.60;99.90;;;;;;5033651;28;20502;-63
2021/06/18 00:50:42;;;;;;;5.63;5.07;;;19.50;99.90;;;;;;5034142;28;20443;-63
2021/06/18 00:53:09;;;;;;;5.10;4.60;;;19.50;99.90;;;;;;5034182;28;20428;-63
2021/06/18 00:55:35;;;;;;;5.73;5.30;;;19.40;99.90;;;;;;5034112;28;20385;-63
2021/06/18 00:58:02;;;;;;;5.77;5.30;;;19.40;99.90;;;;;;5033793;28;20388;-63
2021/06/18 01:00:27;;;;;;;5.50;5.00;;;19.40;99.90;;;;;;5033853;28;20192;-63
2021/06/18 01:02:53;;;;;;;6.30;5.80;;;19.40;99.90;;;;;;5033782;28;20440;-63
2021/06/18 01:05:21;;;;;;;5.67;5.27;;;19.40;99.90;;;;;;5033675;28;20175;-63
2021/06/18 01:08:10;;;;;;;5.90;5.50;;;19.40;99.90;;;;;;5031672;28;20928;-63
2021/06/18 01:11:01;;;;;;;6.00;5.50;;;19.40;99.90;;;;;;5033658;28;20875;-63
2021/06/18 01:13:58;;;;;;;6.00;5.40;;;19.30;99.90;;;;;;5033627;28;20405;-63
2021/06/18 01:16:30;;;;;;;5.00;4.60;;;19.40;99.90;;;;;;5033795;28;20782;-62
2021/06/18 01:19:21;;;;;;;6.00;5.40;;;19.40;99.90;;;;;;5033197;28;20412;-63
2021/06/18 01:21:55;;;;;;;6.00;5.50;;;19.30;99.90;;;;;;5033077;28;20417;-63
2021/06/18 01:24:30;;;;;;;5.37;5.00;;;19.20;99.90;;;;;;5033580;28;20447;-62
2021/06/18 01:27:19;;;;;;;5.90;5.30;;;19.20;99.90;;;;;;5033588;28;20407;-62
2021/06/18 01:30:07;;;;;;;5.17;4.67;;;19.20;99.90;;;;;;5033341;28;20436;-62
2021/06/18 01:32:46;;;;;;;8.73;5.03;;;19.10;99.90;;;;;;5033610;28;20544;-62
2021/06/18 01:35:15;;;;;;;5.47;4.97;;;19.10;99.90;;;;;;5033170;28;20424;-63
2021/06/18 01:37:45;;;;;;;4.73;4.33;;;19.10;99.90;;;;;;5033182;28;20418;-63
2021/06/18 01:40:12;;;;;;;5.20;4.80;;;19.00;99.90;;;;;;5033366;28;20422;-63
2021/06/18 01:42:41;;;;;;;5.20;4.80;;;19.00;99.90;;;;;;5033527;28;20776;-63
2021/06/18 01:45:09;;;;;;;5.30;4.80;;;18.90;99.90;;;;;;5033426;28;20406;-63
2021/06/18 01:47:37;;;;;;;5.23;4.83;;;18.90;99.90;;;;;;5032998;28;20419;-63
2021/06/18 01:50:04;;;;;;;5.73;5.23;;;18.90;99.90;;;;;;5032912;28;20420;-63
2021/06/18 01:52:31;;;;;;;6.77;5.67;;;18.90;99.90;;;;;;5033372;28;20510;-63
2021/06/18 01:54:59;;;;;;;5.70;5.17;;;18.90;99.90;;;;;;5033305;28;20428;-63
2021/06/18 01:57:26;;;;;;;6.77;6.17;;;18.80;99.90;;;;;;5032604;28;20398;-63
2021/06/18 01:59:55;;;;;;;5.40;5.00;;;18.80;99.90;;;;;;5033268;28;20419;-63
2021/06/18 02:02:23;;;;;;;4.70;4.37;;;18.70;99.90;;;;;;5033267;28;20813;-63
2021/06/18 02:04:49;;;;;;;4.70;4.27;;;18.70;99.90;;;;;;5033290;28;20494;-62
2021/06/18 02:07:16;;;;;;;5.67;5.17;;;18.70;99.90;;;;;;5032795;28;20752;-63
2021/06/18 02:09:44;;;;;;;5.00;4.60;;;18.60;99.90;;;;;;5032883;28;20456;-62
2021/06/18 02:12:11;;;;;;;5.20;4.80;;;18.60;99.90;;;;;;5032735;28;20499;-63
2021/06/18 02:14:38;;;;;;;5.07;4.67;;;18.60;99.90;;;;;;5032769;28;20475;-62
2021/06/18 02:17:05;;;;;;;4.87;4.57;;;18.50;99.90;;;;;;5033026;28;20398;-63
2021/06/18 02:19:34;;;;;;;5.13;4.73;;;18.50;99.90;;;;;;5032608;28;20951;-63
2021/06/18 02:22:02;;;;;;;5.40;4.30;;;18.40;99.90;;;;;;5036457;28;20430;-62
2021/06/18 02:24:30;;;;;;;6.10;4.50;;;18.40;99.90;;;;;;5037024;28;20405;-62
2021/06/18 02:26:58;;;;;;;5.13;4.73;;;18.40;99.90;;;;;;5036750;28;20424;-62
2021/06/18 02:29:24;;;;;;;3.63;3.33;;;18.30;99.90;;;;;;5036433;28;20475;-62
2021/06/18 02:31:51;;;;;;;4.30;3.90;;;18.30;99.90;;;;;;5036826;28;20461;-63
2021/06/18 02:34:16;;;;;;;5.17;4.77;;;18.20;99.90;;;;;;5035475;28;20171;-63
2021/06/18 02:36:43;;;;;;;4.87;4.47;;;18.20;99.90;;;;;;5036320;28;20416;-63
2021/06/18 02:39:10;;;;;;;5.53;4.93;;;18.10;99.90;;;;;;5036196;28;20197;-62
2021/06/18 02:41:37;;;;;;;5.10;4.60;;;18.10;99.90;;;;;;5036747;28;20448;-62
2021/06/18 02:44:03;;;;;;;5.67;5.17;;;18.00;99.90;;;;;;5036281;28;20422;-62
2021/06/18 02:47:00;;;;;;;6.13;4.50;;;18.00;99.90;;;;;;5036308;28;21003;-63
2021/06/18 02:49:52;;;;;;;4.73;4.33;;;18.00;99.90;;;;;;5035923;28;20407;-63
2021/06/18 02:52:29;;;;;;;5.33;4.93;;;17.90;99.90;;;;;;5036101;28;20496;-63
2021/06/18 02:55:10;;;;;;;4.43;4.03;;;17.90;99.90;;;;;;5036421;28;20433;-63
2021/06/18 02:57:45;;;;;;;6.07;5.07;;;18.00;99.90;;;;;;5035639;28;21001;-62
2021/06/18 03:00:12;;;;;;;5.00;4.50;;;17.90;99.90;;;;;;5036352;28;20472;-63
2021/06/18 03:02:44;;;;;;;5.60;5.03;;;17.90;99.90;;;;;;5036302;28;20416;-62
2021/06/18 03:05:12;;;;;;;5.43;4.90;;;17.90;99.90;;;;;;5036281;28;20424;-64
2021/06/18 03:07:42;;;;;;;4.87;4.47;;;17.80;99.90;;;;;;5035621;28;20412;-63
2021/06/18 03:10:09;;;;;;;4.63;4.30;;;17.90;99.90;;;;;;5035910;28;20453;-63
2021/06/18 03:12:41;;;;;;;5.37;4.57;;;17.80;99.90;;;;;;5035606;28;20456;-63
2021/06/18 03:15:09;;;;;;;5.20;4.80;;;17.90;99.90;;;;;;5036027;28;20413;-63
2021/06/18 03:17:38;;;;;;;5.77;5.27;;;17.80;99.90;;;;;;5035487;28;20444;-63
2021/06/18 03:20:11;;;;;;;6.03;4.73;;;17.80;99.90;;;;;;5035938;28;20435;-63
2021/06/18 03:22:37;;;;;;;6.13;4.50;;;17.80;99.90;;;;;;5035385;28;20559;-63
2021/06/18 03:25:05;;;;;;;5.30;4.90;;;17.90;99.90;;;;;;5035797;28;20420;-63
2021/06/18 03:27:35;;;;;;;4.73;4.33;;;17.90;99.90;;;;;;5035244;28;20470;-63
2021/06/18 03:30:04;;;;;;;5.37;4.87;;;17.90;99.90;;;;;;5035391;28;20500;-63
2021/06/18 03:32:30;;;;;;;4.70;4.30;;;18.00;99.90;;;;;;5034894;28;20462;-63
2021/06/18 03:34:57;;;;;;;5.13;4.73;;;18.00;99.90;;;;;;5035590;28;20409;-63
2021/06/18 03:37:25;;;;;;;4.47;4.17;;;18.10;99.90;;;;;;5035401;28;20405;-63
2021/06/18 03:39:51;;;;;;;5.73;5.33;;;18.20;99.90;;;;;;5035317;28;20422;-63
2021/06/18 03:42:17;;;;;;;10.80;5.43;;;18.30;99.90;;;;;;5035379;28;20386;-63
2021/06/18 03:44:44;;;;;;;4.67;4.27;;;18.50;99.90;;;;;;5035274;28;20593;-63
2021/06/18 03:47:10;;;;;;;5.20;4.30;;;18.70;99.90;;;;;;5034969;28;20408;-63
2021/06/18 03:49:36;;;;;;;6.03;5.13;;;18.90;99.90;;;;;;5035165;28;20420;-63
2021/06/18 03:52:03;;;;;;;5.10;4.70;;;19.10;99.90;;;;;;5034947;28;20549;-63
2021/06/18 03:54:32;;;;;;;6.07;5.40;;;19.20;99.90;;;;;;5015416;28;20449;-63
2021/06/18 03:56:59;;;;;;;4.80;4.50;;;19.30;99.90;;;;;;5015365;28;20402;-63
2021/06/18 03:59:26;;;;;;;5.23;4.80;;;19.30;99.90;;;;;;5014807;28;20822;-63
2021/06/18 04:01:53;;;;;;;5.13;4.73;;;19.40;99.90;;;;;;5015425;28;20487;-63
2021/06/18 04:04:21;;;;;;;4.70;4.30;;;19.50;99.90;;;;;;5015348;28;20460;-63
2021/06/18 04:06:48;;;;;;;5.47;4.97;;;19.50;99.90;;;;;;5013771;28;20398;-64
2021/06/18 04:09:15;;;;;;;5.30;4.90;;;19.50;99.90;;;;;;5034076;28;20459;-64
2021/06/18 04:11:41;;;;;;;6.93;4.50;;;19.40;99.90;;;;;;5035262;28;20469;-64
2021/06/18 04:14:07;;;;;;;7.50;4.60;;;19.30;99.90;;;;;;5034622;28;20509;-63
2021/06/18 04:16:33;;;;;;;4.80;4.30;;;19.30;99.90;;;;;;5034567;28;20442;-63
2021/06/18 04:18:59;;;;;;;5.77;5.17;;;19.40;99.90;;;;;;5034425;28;20775;-64
2021/06/18 04:21:27;;;;;;;8.13;4.90;;;19.50;99.90;;;;;;5034549;28;20178;-63
2021/06/18 04:23:53;;;;;;;4.97;4.57;;;19.70;99.90;;;;;;5034550;28;20441;-64
2021/06/18 04:26:20;;;;;;;5.43;4.90;;;20.00;99.90;;;;;;5034576;28;20412;-64
2021/06/18 04:28:46;;;;;;;6.33;5.23;;;20.30;99.90;;;;;;5034182;28;20455;-63
2021/06/18 04:31:12;;;;;;;4.90;4.50;;;20.80;99.90;;;;;;5033832;28;20480;-64
2021/06/18 04:33:38;;;;;;;5.63;5.17;;;21.10;99.90;;;;;;5034513;28;20412;-63
2021/06/18 04:36:04;;;;;;;4.90;4.50;;;21.40;99.90;;;;;;5034495;28;20261;-63
2021/06/18 04:38:30;;;;;;;4.87;4.47;;;21.60;99.90;;;;;;5033803;28;20429;-63
2021/06/18 04:40:55;;;;;;;5.40;5.00;;;21.70;99.90;;;;;;5034049;28;20515;-63
2021/06/18 04:43:21;;;;;;;4.77;4.40;;;21.80;99.90;;;;;;5033739;28;20261;-63
2021/06/18 04:45:47;;;;;;;4.80;4.40;;;21.80;99.90;;;;;;5034258;28;20599;-63
2021/06/18 04:48:13;;;;;;;5.30;4.80;;;21.70;99.90;;;;;;5033642;28;20213;-63
2021/06/18 04:50:39;;;;;;;4.47;4.17;;;21.80;99.90;;;;;;5033843;28;20186;-63
2021/06/18 04:53:10;;;;;;;5.17;4.20;;;21.70;99.90;;;;;;5033979;28;20380;-63
2021/06/18 04:55:37;;;;;;;5.43;5.00;;;21.70;99.90;;;;;;5034064;28;20179;-63
2021/06/18 04:58:02;;;;;;;4.50;4.17;;;21.70;99.90;;;;;;5033622;28;20380;-63
2021/06/18 05:00:28;;;;;;;5.43;4.93;;;21.70;99.90;;;;;;5033910;28;20411;-63
2021/06/18 05:02:54;;;;;;;4.97;4.57;;;21.70;99.90;;;;;;5033377;28;20671;-63
2021/06/18 05:05:20;;;;;;;5.07;4.67;;;21.70;99.90;;;;;;5032733;28;20433;-63
2021/06/18 05:07:46;;;;;;;5.27;4.77;;;21.80;99.90;;;;;;5033370;28;20170;-63
2021/06/18 05:10:12;;;;;;;5.40;4.93;;;21.90;99.90;;;;;;5033817;28;20572;-63
2021/06/18 05:12:38;;;;;;;5.13;4.73;;;22.10;99.90;;;;;;5033859;28;20245;-63
2021/06/18 05:15:05;;;;;;;4.43;4.13;;;22.00;99.90;;;;;;5033776;28;20725;-64
2021/06/18 05:17:31;;;;;;;4.67;4.33;;;22.00;99.90;;;;;;5032053;28;20599;-63
2021/06/18 05:19:56;;;;;;;5.30;4.90;;;22.00;99.90;;;;;;5033677;28;20460;-64
2021/06/18 05:22:22;;;;;;;5.00;4.43;;;22.20;99.90;;;;;;5033630;28;20205;-63
2021/06/18 05:24:48;;;;;;;6.00;5.40;;;22.30;99.90;;;;;;5033692;28;20170;-63
2021/06/18 05:27:13;;;;;;;5.00;4.60;;;22.50;99.90;;;;;;5032908;28;20679;-64
2021/06/18 05:29:39;;;;;;;5.00;4.60;;;22.70;99.90;;;;;;5033658;28;20541;-63
2021/06/18 05:32:05;;;;;;;5.13;4.67;;;22.80;99.90;;;;;;5033407;28;20210;-64
2021/06/18 05:34:31;;;;;;;6.13;4.60;;;23.00;99.90;;;;;;5033580;28;20170;-64
2021/06/18 05:36:57;;;;;;;5.77;5.27;;;23.30;99.90;;;;;;5033470;28;20415;-64
2021/06/18 05:39:22;;;;;;;5.77;4.60;;;23.50;99.90;;;;;;5032883;28;20189;-64
2021/06/18 05:41:48;;;;;;;5.37;4.73;;;23.70;99.90;;;;;;5032884;28;20583;-62
2021/06/18 05:44:14;;;;;;;4.90;4.50;;;23.90;99.90;;;;;;5033310;28;20174;-63
2021/06/18 05:46:39;;;;;;;5.77;5.37;;;24.20;99.90;;;;;;5033483;28;20269;-63
2021/06/18 05:49:05;;;;;;;5.90;5.10;;;24.60;99.80;;;;;;5032702;28;20526;-64
2021/06/18 05:51:31;;;;;;;5.73;5.23;;;24.90;98.70;;;;;;5033004;28;20194;-64
2021/06/18 05:53:57;;;;;;;5.80;5.17;;;25.30;98.60;;;;;;5033244;28;20441;-64
2021/06/18 05:56:22;;;;;;;5.20;4.70;;;25.60;98.10;;;;;;5035200;28;20170;-63
2021/06/18 05:58:48;;;;;;;4.80;4.40;;;25.90;97.40;;;;;;5035655;28;20605;-61
2021/06/18 06:01:14;;;;;;;5.70;5.30;;;26.10;96.50;;;;;;5036466;28;20209;-69
2021/06/18 06:03:41;;;;;;;4.90;4.50;;;26.20;96.20;;;;;;5036233;28;20245;-69
2021/06/18 06:06:10;;;;;;;5.77;5.23;;;26.30;95.70;;;;;;5036227;28;20421;-69
2021/06/18 06:08:36;;;;;;;6.77;5.10;;;26.20;96.10;;;;;;5036465;28;20414;-70
2021/06/18 06:11:02;;;;;;;5.80;5.23;;;26.10;96.30;;;;;;5036786;28;20969;-69
2021/06/18 06:13:28;;;;;;;17.07;5.10;;;26.10;96.10;;;;;;5036655;28;20396;-68
2021/06/18 06:15:54;;;;;;;5.43;4.93;;;26.10;95.30;;;;;;5036875;28;20408;-70
2021/06/18 06:18:20;;;;;;;5.57;5.10;;;26.00;95.70;;;;;;5036417;28;20532;-69
2021/06/18 06:20:47;;;;;;;5.37;4.87;;;25.90;95.70;;;;;;5036989;28;20435;-69
2021/06/18 06:23:14;;;;;;;4.93;4.63;;;25.80;95.60;;;;;;5036832;28;20375;-66
2021/06/18 06:25:40;;;;;;;5.93;5.13;;;25.70;96.20;;;;;;5036528;28;20937;-66
2021/06/18 06:28:07;;;;;;;4.90;4.50;;;25.70;95.90;;;;;;5036293;28;20436;-66
2021/06/18 06:30:34;;;;;;;5.60;5.07;;;25.70;96.40;;;;;;5036676;28;20921;-67
2021/06/18 06:32:59;;;;;;;5.20;4.70;;;25.80;96.40;;;;;;5036278;28;20459;-66
2021/06/18 06:35:25;;;;;;;5.43;4.67;;;25.80;96.10;;;;;;5036357;28;20395;-66
2021/06/18 06:37:52;;;;;;;5.50;5.00;;;25.70;95.90;;;;;;5036154;28;20205;-67
2021/06/18 06:40:20;;;;;;;5.13;4.77;;;25.70;95.40;;;;;;5036393;28;20431;-70
2021/06/18 06:42:46;;;;;;;5.10;4.70;;;25.90;95.90;;;;;;5036564;28;20412;-71
2021/06/18 06:45:12;;;;;;;5.43;4.93;;;26.00;95.80;;;;;;5036716;28;20405;-69
2021/06/18 06:47:37;;;;;;;4.80;4.40;;;26.10;95.60;;;;;;5035659;28;20749;-68
2021/06/18 06:50:04;;;;;;;5.80;5.30;;;26.10;95.40;;;;;;5036288;28;20194;-69
2021/06/18 06:52:29;;;;;;;4.90;4.50;;;26.20;95.60;;;;;;5036541;28;20533;-70
2021/06/18 06:54:55;;;;;;;4.90;4.50;;;26.30;95.10;;;;;;5036253;28;20428;-69
2021/06/18 06:57:21;;;;;;;5.17;4.77;;;26.30;95.30;;;;;;5035861;28;20228;-69
2021/06/18 06:59:47;;;;;;;5.00;4.60;;;26.50;95.70;;;;;;5036106;28;20282;-69
2021/06/18 07:02:12;;;;;;;4.70;4.40;;;26.60;95.30;;;;;;5035686;28;20194;-68
2021/06/18 07:04:38;;;;;;;4.90;4.30;;;26.80;95.00;;;;;;5036152;28;20384;-68
2021/06/18 07:07:04;;;;;;;5.47;4.97;;;26.70;94.70;;;;;;5035506;28;20253;-69
2021/06/18 07:09:31;;;;;;;5.10;4.60;;;26.80;94.70;;;;;;5035519;28;20190;-69
2021/06/18 07:11:56;;;;;;;7.73;4.87;;;27.00;94.30;;;;;;5036031;28;20460;-68
2021/06/18 07:14:22;;;;;;;4.80;4.47;;;27.30;93.50;;;;;;5036106;28;20405;-69
2021/06/18 07:16:47;;;;;;;6.00;5.43;;;27.50;93.60;;;;;;5034513;28;20170;-69
2021/06/18 07:19:13;;;;;;;6.77;5.40;;;27.70;93.20;;;;;;5035386;28;20199;-69
2021/06/18 07:21:39;;;;;;;4.30;4.00;;;27.80;93.30;;;;;;5034614;28;20181;-69
2021/06/18 07:24:04;;;;;;;6.80;5.43;;;28.20;92.30;;;;;;5035733;28;20174;-66
2021/06/18 07:26:30;;;;;;;5.30;4.90;;;28.60;91.90;;;;;;5035698;28;20174;-66
2021/06/18 07:28:56;;;;;;;5.50;4.60;;;29.10;91.20;;;;;;5035265;28;20213;-66
2021/06/18 07:31:21;;;;;;;5.10;4.60;;;29.40;90.70;;;;;;5035061;28;20193;-66
2021/06/18 07:33:47;;;;;;;4.37;4.13;;;30.00;89.10;;;;;;5035693;28;20182;-67
2021/06/18 07:36:13;;;;;;;4.90;4.50;;;30.50;86.70;;;;;;5035612;28;20170;-66
2021/06/18 07:38:38;;;;;;;5.30;4.80;;;31.10;84.30;;;;;;5035185;28;20190;-67
2021/06/18 07:41:04;;;;;;;4.80;4.40;;;31.70;81.90;;;;;;5035625;28;20269;-67
2021/06/18 07:43:30;;;;;;;4.80;4.30;;;32.80;81.00;;;;;;5035636;28;20178;-66
2021/06/18 07:45:56;;;;;;;6.00;5.50;;;33.80;74.60;;;;;;5035517;28;20398;-66
2021/06/18 07:48:22;;;;;;;7.10;4.50;;;34.40;72.20;;;;;;5034669;28;20629;-67
2021/06/18 07:50:47;;;;;;;4.50;4.20;;;34.80;70.00;;;;;;5035286;28;20624;-67
2021/06/18 07:53:14;;;;;;;4.93;4.63;;;35.70;67.60;;;;;;5035469;28;20179;-66
2021/06/18 07:55:41;;;;;;;4.83;4.43;;;36.50;65.40;;;;;;5034968;28;20189;-66
2021/06/18 07:58:08;;;;;;;9.03;5.90;;;37.20;61.90;;;;;;5034814;28;20448;-66
2021/06/18 08:00:34;;;;;;;4.70;4.40;;;37.30;59.40;;;;;;5035167;28;20416;-65
2021/06/18 08:02:59;;;;;;;6.07;5.57;;;37.60;58.90;;;;;;5035043;28;20499;-67
2021/06/18 08:05:25;;;;;;;5.63;5.23;;;38.20;57.30;;;;;;5034956;28;20174;-68
2021/06/18 08:07:51;;;;;;;5.97;5.47;;;38.80;56.80;;;;;;5034245;28;20182;-67
2021/06/18 08:10:17;;;;;;;5.73;5.00;;;39.40;55.20;;;;;;5034640;28;20224;-67
2021/06/18 08:12:45;;;;;;;5.27;4.87;;;40.00;53.50;;;;;;5034927;28;20678;-67
2021/06/18 08:15:11;;;;;;;5.83;5.33;;;40.30;52.50;;;;;;5034797;28;20412;-67
2021/06/18 08:17:37;;;;;;;6.40;5.87;;;40.60;50.70;;;;;;5033411;28;20417;-67
2021/06/18 08:20:05;;;;;;;6.50;6.00;;;40.60;50.80;;;;;;5034656;28;20421;-67
2021/06/18 08:22:30;;;;;;;5.73;5.43;;;40.70;50.40;;;;;;5033641;28;20217;-67
2021/06/18 08:24:56;;;;;;;7.00;6.40;;;40.60;49.80;;;;;;5034273;28;20822;-68
2021/06/18 08:27:22;;;;;;;6.03;5.47;;;40.40;48.70;;;;;;5034063;28;20189;-66
2021/06/18 08:29:48;;;;;;;5.70;5.20;;;40.10;50.30;;;;;;5034384;28;20193;-67
2021/06/18 08:32:14;;;;;;;5.77;5.37;;;40.10;49.50;;;;;;5034383;28;20576;-66
2021/06/18 08:34:40;;;;;;;6.10;5.70;;;40.30;49.60;;;;;;5034478;28;20178;-67
2021/06/18 08:37:06;;;;;;;6.30;5.90;;;40.50;48.50;;;;;;5034478;28;20185;-67
2021/06/18 08:39:32;;;;;;;5.97;5.47;;;40.60;48.90;;;;;;5034252;28;20515;-67
2021/06/18 08:41:58;;;;;;;6.60;6.13;;;40.20;48.30;;;;;;5034415;28;20599;-67
2021/06/18 08:44:23;;;;;;;11.57;10.60;;;40.10;48.80;;;;;;5033191;28;20510;-64
2021/06/18 08:46:49;;;;;;;7.40;6.90;;;40.20;48.30;;;;;;5033662;28;20245;-67
2021/06/18 08:49:15;;;;;;;6.40;5.80;;;40.40;48.60;;;;;;5033696;28;20656;-67
2021/06/18 08:51:41;;;;;;;5.87;5.57;;;40.80;48.50;;;;;;5034228;28;20253;-67
2021/06/18 08:54:07;;;;;;;5.63;5.33;;;41.30;47.90;;;;;;5033827;28;20187;-67
2021/06/18 08:56:32;;;;;;;5.97;5.50;;;41.70;46.60;;;;;;5034213;28;20262;-67
2021/06/18 08:58:58;;;;;;;5.90;5.60;;;42.10;45.90;;;;;;5033525;28;20523;-67
2021/06/18 09:01:24;;;;;;;6.07;5.67;;;42.60;45.10;;;;;;5034102;28;20213;-66
2021/06/18 09:03:50;;;;;;;6.87;6.37;;;42.70;44.60;;;;;;5033986;28;20174;-68
2021/06/18 09:06:23;;;;;;;6.60;6.20;;;42.60;45.10;;;;;;5033956;28;20640;-67
2021/06/18 09:09:20;;;;;;;6.43;6.03;;;42.50;45.00;;;;;;5031797;28;20499;-67
2021/06/18 09:11:58;;;;;;;6.83;6.27;;;42.70;45.60;;;;;;5005738;28;20835;-67
2021/06/18 09:14:24;;;;;;;6.00;5.60;;;42.30;44.90;;;;;;5032873;28;20404;-67
2021/06/18 09:17:12;;;;;;;5.70;5.40;;;41.80;45.60;;;;;;5033967;28;20929;-67
2021/06/18 09:19:40;;;;;;;7.10;6.60;;;42.10;45.10;;;;;;5033642;28;20194;-67
2021/06/18 09:22:08;;;;;;;6.97;6.57;;;42.50;44.70;;;;;;5033180;28;20448;-67
2021/06/18 09:24:40;;;;;;;6.40;6.00;;;42.80;44.00;;;;;;5033844;28;20459;-67
2021/06/18 09:27:10;;;;;;;6.33;6.03;;;42.70;44.90;;;;;;5033693;28;20404;-67
2021/06/18 09:29:37;;;;;;;6.50;6.10;;;42.30;44.90;;;;;;5033377;28;20532;-67
2021/06/18 09:32:12;;;;;;;6.53;6.13;;;42.20;45.40;;;;;;5033268;28;20413;-67
2021/06/18 09:34:44;;;;;;;5.97;5.47;;;42.50;44.60;;;;;;5033697;28;20411;-67
2021/06/18 09:37:33;;;;;;;6.50;6.10;;;42.70;44.70;;;;;;5033265;28;20819;-66
2021/06/18 09:40:16;;;;;;;7.37;6.87;;;42.50;44.00;;;;;;5032968;28;20428;-67
2021/06/18 09:42:45;;;;;;;6.67;6.27;;;42.60;44.10;;;;;;5033010;28;20529;-65
2021/06/18 09:45:21;;;;;;;6.90;6.50;;;43.00;44.60;;;;;;5033351;28;20803;-65
2021/06/18 09:47:48;;;;;;;7.23;6.83;;;43.40;43.20;;;;;;5032985;28;20399;-64
2021/06/18 09:50:13;;;;;;;7.30;6.67;;;43.80;42.40;;;;;;5032020;28;20760;-65
2021/06/18 09:52:42;;;;;;;6.77;6.37;;;43.80;42.00;;;;;;5033041;28;20523;-65
2021/06/18 09:55:08;;;;;;;7.20;6.80;;;43.90;42.20;;;;;;5033002;28;20228;-66
2021/06/18 09:57:43;;;;;;;7.17;6.67;;;43.30;41.60;;;;;;5032570;28;20425;-65
2021/06/18 10:00:12;;;;;;;6.50;6.10;;;43.20;42.20;;;;;;5029786;28;20459;-65
2021/06/18 10:02:49;;;;;;;6.87;6.47;;;43.30;41.70;;;;;;5031383;28;20550;-63
2021/06/18 10:05:23;;;;;;;6.57;6.17;;;43.50;41.50;;;;;;5033032;28;20411;-66
2021/06/18 10:07:52;;;;;;;7.07;6.70;;;43.90;41.30;;;;;;5032979;28;20415;-65
2021/06/18 10:10:29;;;;;;;6.60;6.17;;;44.20;40.70;;;;;;5032978;28;20531;-66
2021/06/18 10:12:55;;;;;;;6.80;6.30;;;44.40;40.60;;;;;;5033187;28;20404;-65
2021/06/18 10:15:23;;;;;;;7.60;7.10;;;44.40;39.90;;;;;;5032958;28;20425;-65
2021/06/18 10:17:50;;;;;;;6.63;6.20;;;43.70;40.10;;;;;;5032713;28;20926;-64
2021/06/18 10:20:19;;;;;;;6.77;6.40;;;43.20;40.50;;;;;;5032646;28;20883;-66
2021/06/18 10:23:06;;;;;;;6.50;6.10;;;42.80;40.70;;;;;;5032910;28;20503;-67
2021/06/18 10:25:48;;;;;;;6.53;6.13;;;42.50;41.10;;;;;;5033088;28;20755;-64
2021/06/18 10:28:20;;;;;;;5.90;5.57;;;42.70;41.50;;;;;;5032204;28;20417;-65
2021/06/18 10:30:49;;;;;;;6.50;6.10;;;42.90;41.50;;;;;;5032542;28;20416;-66
2021/06/18 10:33:27;;;;;;;5.77;5.37;;;42.90;40.60;;;;;;5032622;28;20444;-64
2021/06/18 10:35:58;;;;;;;5.77;5.40;;;43.00;39.60;;;;;;5033007;28;20460;-64
2021/06/18 10:38:32;;;;;;;5.43;5.13;;;42.70;39.90;;;;;;5032365;28;20409;-65
2021/06/18 10:41:01;;;;;;;6.13;5.57;;;42.80;37.80;;;;;;5031746;28;20409;-64
2021/06/18 10:43:38;;;;;;;5.73;5.33;;;42.90;38.50;;;;;;5036182;28;20421;-64
2021/06/18 10:46:06;;;;;;;5.67;5.37;;;42.20;38.20;;;;;;5036521;28;20400;-66
2021/06/18 10:48:49;;;;;;;5.73;5.33;;;42.00;38.70;;;;;;5035874;28;20435;-68
2021/06/18 10:51:29;;;;;;;5.73;5.33;;;41.80;39.40;;;;;;5036462;28;20412;-67
2021/06/18 10:54:17;;;;;;;5.30;5.00;;;41.70;39.60;;;;;;5036190;28;20794;-67
2021/06/18 10:56:45;;;;;;;5.00;4.70;;;41.50;39.60;;;;;;5036261;28;20440;-66
2021/06/18 10:59:27;;;;;;;5.03;4.63;;;41.20;38.70;;;;;;5035668;28;20429;-69
2021/06/18 11:01:53;;;;;;;5.43;5.03;;;41.00;38.70;;;;;;5036044;28;20467;-66
2021/06/18 11:04:43;;;;;;;5.00;4.70;;;40.90;38.80;;;;;;5036021;28;20397;-69
2021/06/18 11:07:31;;;;;;;5.37;4.97;;;41.00;37.90;;;;;;5035315;28;20525;-68
2021/06/18 11:10:03;;;;;;;4.77;4.37;;;40.80;38.30;;;;;;5035803;28;20448;-65
2021/06/18 11:12:29;;;;;;;4.60;4.20;;;40.10;38.40;;;;;;5035908;28;20877;-65
2021/06/18 11:15:15;;;;;;;6.10;4.10;;;39.40;38.60;;;;;;5034548;28;20798;-66
2021/06/18 11:17:41;;;;;;;5.27;4.90;;;38.50;39.30;;;;;;5035566;28;20378;-67
2021/06/18 11:20:09;;;;;;;4.60;4.30;;;37.80;41.40;;;;;;5035608;28;20399;-68
2021/06/18 11:22:43;;;;;;;5.63;5.13;;;36.90;42.70;;;;;;5034174;28;20436;-66
2021/06/18 11:25:47;;;;;;;5.50;5.10;;;36.30;42.10;;;;;;5035936;28;20441;-68
2021/06/18 11:28:21;;;;;;;5.23;4.83;;;35.30;45.40;;;;;;4974153;28;20443;-67
2021/06/18 11:30:52;;;;;;;6.70;3.80;;;34.90;45.30;;;;;;4958510;28;20956;-67
2021/06/18 11:33:51;;;;;;;4.67;4.27;;;34.70;43.80;;;;;;4958537;28;20939;-66
2021/06/18 11:36:31;;;;;;;4.00;3.80;;;34.50;43.50;;;;;;4974472;28;20437;-66
2021/06/18 11:38:58;;;;;;;4.57;4.27;;;34.30;45.80;;;;;;4954892;29;20808;-67
2021/06/18 11:41:27;;;;;;;4.73;4.40;;;33.90;45.70;;;;;;4955166;28;20472;-66
2021/06/18 11:43:55;;;;;;;4.90;4.50;;;33.80;46.60;;;;;;4955278;28;20418;-66
2021/06/18 11:46:26;;;;;;;4.93;4.60;;;33.80;46.30;;;;;;4945624;28;20821;-68
2021/06/18 11:48:54;;;;;;;5.57;5.07;;;33.90;47.70;;;;;;4974028;28;20464;-69
2021/06/18 11:51:20;;;;;;;4.83;4.43;;;33.80;47.50;;;;;;4974429;28;20383;-68
2021/06/18 11:53:47;;;;;;;4.73;4.43;;;33.70;46.10;;;;;;4974510;28;20949;-68
2021/06/18 11:56:13;;;;;;;4.87;4.53;;;33.50;47.10;;;;;;4958179;28;20947;-68
2021/06/18 11:58:40;;;;;;;4.90;4.50;;;33.40;47.40;;;;;;4996552;28;20437;-67
2021/06/18 12:01:14;;;;;;;5.00;4.50;;;33.40;48.10;;;;;;5035045;28;20432;-69
2021/06/18 12:03:51;;;;;;;4.80;4.43;;;33.40;48.70;;;;;;5035043;28;20464;-67
2021/06/18 12:06:27;;;;;;;7.20;4.30;;;33.40;48.20;;;;;;5035150;28;20436;-68
2021/06/18 12:09:12;;;;;;;5.70;5.20;;;33.50;48.40;;;;;;5034572;28;20395;-67
2021/06/18 12:11:38;;;;;;;5.00;4.60;;;33.50;48.30;;;;;;5035053;28;20492;-67
2021/06/18 12:14:05;;;;;;;5.00;4.60;;;33.50;49.50;;;;;;5034765;28;20671;-67
2021/06/18 12:16:34;;;;;;;4.93;4.53;;;33.50;48.80;;;;;;5034868;28;20273;-69
2021/06/18 12:19:22;;;;;;;5.53;5.03;;;33.50;48.80;;;;;;5034338;28;20436;-67
2021/06/18 12:22:06;;;;;;;4.67;4.37;;;33.50;48.40;;;;;;5034634;28;20441;-68
2021/06/18 12:24:44;;;;;;;4.40;4.10;;;33.40;48.80;;;;;;5014844;28;20395;-66
2021/06/18 12:27:21;;;;;;;5.77;5.33;;;33.40;48.40;;;;;;5014670;28;20417;-68
2021/06/18 12:29:53;;;;;;;5.37;4.97;;;33.20;48.80;;;;;;5014347;28;20833;-67
2021/06/18 12:32:20;;;;;;;5.40;5.00;;;33.10;49.60;;;;;;5030560;28;20421;-68
2021/06/18 12:34:49;;;;;;;5.40;4.90;;;33.20;48.60;;;;;;5034427;28;20417;-68
2021/06/18 12:37:18;;;;;;;4.93;4.53;;;33.30;49.30;;;;;;5033621;28;20395;-67
2021/06/18 12:40:03;;;;;;;5.57;4.90;;;33.30;49.80;;;;;;5034016;28;20432;-68
2021/06/18 12:42:53;;;;;;;5.07;4.67;;;33.40;49.70;;;;;;5034244;28;20448;-66
2021/06/18 12:45:25;;;;;;;5.40;5.00;;;33.50;49.50;;;;;;5026583;28;20523;-68
2021/06/18 12:48:12;;;;;;;5.17;4.80;;;33.50;49.80;;;;;;5033966;28;20413;-71
2021/06/18 12:50:48;;;;;;;4.90;4.50;;;33.50;49.20;;;;;;5033433;28;20396;-69
2021/06/18 12:53:28;;;;;;;5.20;4.70;;;33.50;49.20;;;;;;5034363;28;20788;-70
2021/06/18 12:55:54;;;;;;;5.47;5.07;;;33.50;49.10;;;;;;5034056;28;20993;-68
2021/06/18 12:58:21;;;;;;;4.93;4.53;;;33.50;49.30;;;;;;5032235;28;20399;-66